Time;durP1;ratioP1;P1;durP2;ratioP2;P2;SDS_P1;SDS_P2;PMS_P1;PMS_P2;Temp;Humidity;BMP_temperature;BMP_pressure;BME280_temperature;BME280_humidity;BME280_pressure;Samples;Min_cycle;Max_cycle;Signal;HPM_P1;HPM_P2
2022/11/16 00:01:26;;;;;;;11.05;7.85;;;10.40;99.90;;;;;;5033252;28;21015;-83
2022/11/16 00:03:54;;;;;;;12.13;8.27;;;10.40;99.90;;;;;;5050631;28;20064;-83
2022/11/16 00:06:20;;;;;;;14.95;8.13;;;10.40;99.90;;;;;;5016833;28;20053;-83
2022/11/16 00:09:21;;;;;;;13.40;9.32;;;10.40;99.90;;;;;;5066604;28;20053;-83
2022/11/16 00:11:35;;;;;;;14.02;9.05;;;10.40;99.90;;;;;;5033225;28;20053;-83
2022/11/16 00:14:01;;;;;;;13.88;9.48;;;10.40;99.90;;;;;;5050244;28;20128;-83
2022/11/16 00:16:27;;;;;;;15.13;10.07;;;10.40;99.90;;;;;;5049490;28;20132;-83
2022/11/16 00:18:57;;;;;;;16.02;10.50;;;10.50;99.90;;;;;;5017445;28;20049;-83
2022/11/16 00:21:24;;;;;;;16.02;10.13;;;10.50;99.90;;;;;;5033294;28;20045;-83
2022/11/16 00:23:50;;;;;;;18.85;11.05;;;10.40;99.90;;;;;;5033215;28;20053;-84
2022/11/16 00:26:15;;;;;;;14.70;10.20;;;10.50;99.90;;;;;;5049421;28;20045;-83
2022/11/16 00:28:41;;;;;;;16.67;11.10;;;10.50;99.90;;;;;;5033239;28;20042;-84
2022/11/16 00:31:08;;;;;;;16.17;11.93;;;10.50;99.90;;;;;;5033367;28;20049;-83
2022/11/16 00:33:34;;;;;;;18.00;13.27;;;10.40;99.90;;;;;;5036544;28;20047;-83
2022/11/16 00:36:01;;;;;;;16.23;12.85;;;10.50;99.90;;;;;;5067248;28;20053;-85
2022/11/16 00:38:27;;;;;;;18.35;13.27;;;10.40;99.90;;;;;;5032911;28;20076;-83
2022/11/16 00:40:53;;;;;;;19.77;13.70;;;10.40;99.90;;;;;;5066239;28;20133;-83
2022/11/16 00:43:19;;;;;;;21.50;13.15;;;10.50;99.90;;;;;;5048979;28;20128;-84
2022/11/16 00:45:45;;;;;;;18.65;12.45;;;10.40;99.90;;;;;;5017382;28;20038;-84
2022/11/16 00:48:11;;;;;;;19.08;13.43;;;10.40;99.90;;;;;;5049443;28;20095;-85
2022/11/16 00:50:37;;;;;;;20.58;12.65;;;10.40;99.90;;;;;;5016878;28;20041;-84
2022/11/16 00:53:03;;;;;;;20.35;13.98;;;10.50;99.90;;;;;;5049420;28;20153;-84
2022/11/16 00:55:29;;;;;;;21.92;13.68;;;10.50;99.90;;;;;;5016180;28;20045;-84
2022/11/16 00:57:55;;;;;;;22.00;14.88;;;10.40;99.90;;;;;;5032867;28;20099;-84
2022/11/16 01:00:21;;;;;;;18.80;14.10;;;10.50;99.90;;;;;;5032623;28;20091;-84
2022/11/16 01:02:46;;;;;;;21.15;14.80;;;10.50;99.90;;;;;;5065801;28;20049;-84
2022/11/16 01:05:12;;;;;;;19.75;15.30;;;10.50;99.90;;;;;;5033933;28;20044;-86
2022/11/16 01:07:39;;;;;;;19.88;15.65;;;10.50;99.90;;;;;;5019672;28;20535;-84
2022/11/16 01:10:08;;;;;;;22.02;16.75;;;10.50;99.90;;;;;;5019415;28;20481;-84
2022/11/16 01:12:34;;;;;;;23.75;16.40;;;10.50;99.90;;;;;;5034825;28;20083;-84
2022/11/16 01:14:59;;;;;;;22.52;16.23;;;10.50;99.90;;;;;;5052032;28;20098;-85
2022/11/16 01:17:25;;;;;;;25.50;16.58;;;10.50;99.90;;;;;;5068812;28;20051;-84
2022/11/16 01:19:51;;;;;;;22.40;16.27;;;10.50;99.90;;;;;;5052210;28;20037;-83
2022/11/16 01:22:17;;;;;;;24.27;17.80;;;10.50;99.90;;;;;;5018925;28;20098;-84
2022/11/16 01:24:45;;;;;;;24.70;17.92;;;10.50;99.90;;;;;;5052021;28;20049;-84
2022/11/16 01:27:11;;;;;;;24.67;18.00;;;10.50;99.90;;;;;;5018980;28;20084;-84
2022/11/16 01:29:37;;;;;;;25.75;19.35;;;10.50;99.90;;;;;;5036105;28;20076;-84
2022/11/16 01:32:02;;;;;;;33.35;20.77;;;10.60;99.90;;;;;;5071072;28;20051;-84
2022/11/16 01:34:28;;;;;;;27.23;20.75;;;10.60;99.90;;;;;;5068805;28;20056;-84
2022/11/16 01:36:54;;;;;;;34.30;21.33;;;10.60;99.90;;;;;;5051758;28;20112;-84
2022/11/16 01:39:19;;;;;;;32.95;22.75;;;10.60;99.90;;;;;;5068133;28;20076;-85
2022/11/16 01:41:45;;;;;;;33.00;22.45;;;10.60;99.90;;;;;;5034469;28;20496;-85
2022/11/16 01:44:14;;;;;;;34.42;21.65;;;10.60;99.90;;;;;;5034442;28;20044;-85
2022/11/16 01:46:41;;;;;;;30.35;21.48;;;10.60;99.90;;;;;;5034286;28;20378;-85
2022/11/16 01:49:11;;;;;;;29.95;21.50;;;10.70;99.90;;;;;;5051564;28;20123;-85
2022/11/16 01:51:40;;;;;;;35.33;22.20;;;10.70;99.90;;;;;;5018804;28;20410;-85
2022/11/16 01:54:09;;;;;;;33.33;23.77;;;10.70;99.90;;;;;;5035315;28;20056;-85
2022/11/16 01:56:37;;;;;;;33.47;21.73;;;10.70;99.90;;;;;;5035333;28;20053;-85
2022/11/16 01:59:03;;;;;;;30.27;23.10;;;10.70;99.90;;;;;;5051785;28;20048;-85
2022/11/16 02:01:29;;;;;;;31.45;22.35;;;10.70;99.90;;;;;;5068410;28;20046;-85
2022/11/16 02:03:54;;;;;;;35.83;23.75;;;10.70;99.90;;;;;;5034915;28;20041;-85
2022/11/16 02:06:26;;;;;;;33.53;23.63;;;10.70;99.90;;;;;;5018335;28;20103;-86
2022/11/16 02:12:41;;;;;;;36.50;25.27;;;10.70;99.90;;;;;;5048663;28;20148;-86
2022/11/16 02:15:36;;;;;;;38.57;25.77;;;10.70;99.90;;;;;;5048748;28;20103;-85
2022/11/16 02:18:34;;;;;;;37.80;26.58;;;10.70;99.90;;;;;;5027884;28;20306;-85
2022/11/16 02:21:02;;;;;;;41.15;27.23;;;10.70;99.90;;;;;;5034681;28;20294;-85
2022/11/16 02:23:49;;;;;;;37.00;26.15;;;10.70;99.90;;;;;;5037239;28;20052;-85
2022/11/16 02:26:27;;;;;;;40.00;27.13;;;10.70;99.90;;;;;;5023243;28;20041;-85
2022/11/16 02:29:20;;;;;;;39.10;26.80;;;10.70;99.90;;;;;;5055752;28;20048;-85
2022/11/16 02:32:08;;;;;;;39.58;27.38;;;10.70;99.90;;;;;;5039018;28;20045;-85
2022/11/16 02:35:20;;;;;;;39.78;27.15;;;10.80;99.90;;;;;;5071549;28;20094;-85
2022/11/16 02:37:59;;;;;;;38.88;27.42;;;10.70;99.90;;;;;;5014459;28;20092;-85
2022/11/16 02:40:33;;;;;;;41.47;27.35;;;10.80;99.90;;;;;;5038443;28;20045;-88
2022/11/16 02:43:08;;;;;;;41.25;27.30;;;10.80;99.90;;;;;;5038954;28;20049;-85
2022/11/16 02:45:39;;;;;;;41.03;28.27;;;10.80;99.90;;;;;;5021789;28;20045;-85
2022/11/16 02:48:10;;;;;;;39.92;28.58;;;10.80;99.90;;;;;;5039028;28;20451;-85
2022/11/16 02:50:37;;;;;;;42.85;29.70;;;10.80;99.90;;;;;;5072051;28;20127;-86
2022/11/16 02:53:03;;;;;;;40.97;28.42;;;10.80;99.90;;;;;;5022085;28;20045;-86
2022/11/16 02:55:32;;;;;;;45.80;29.58;;;10.80;99.90;;;;;;5038241;28;20061;-86
2022/11/16 02:58:01;;;;;;;42.08;29.08;;;10.80;99.90;;;;;;5038252;28;20499;-85
2022/11/16 03:00:35;;;;;;;43.00;28.77;;;10.80;99.90;;;;;;5038290;28;20045;-87
2022/11/16 03:03:07;;;;;;;41.58;28.00;;;10.80;99.90;;;;;;5021883;28;20092;-86
2022/11/16 03:05:44;;;;;;;39.60;28.20;;;10.80;99.90;;;;;;5037572;28;20049;-85
2022/11/16 03:08:16;;;;;;;40.53;28.30;;;10.80;99.90;;;;;;5054967;28;20115;-86
2022/11/16 03:13:35;;;;;;;41.92;28.15;;;10.80;99.90;;;;;;5027231;28;20053;-86
2022/11/16 03:16:07;;;;;;;43.28;29.75;;;10.80;99.90;;;;;;5054698;28;20099;-86
2022/11/16 03:18:33;;;;;;;39.35;27.05;;;10.80;99.90;;;;;;5054271;28;20520;-86
2022/11/16 03:21:14;;;;;;;38.53;27.05;;;10.80;99.90;;;;;;5054757;28;20090;-85
2022/11/16 03:23:39;;;;;;;40.78;27.83;;;10.80;99.90;;;;;;5021474;28;20045;-85
2022/11/16 03:26:09;;;;;;;40.72;28.80;;;10.80;99.90;;;;;;5037656;28;20071;-85
2022/11/16 03:28:49;;;;;;;40.13;27.15;;;10.90;99.90;;;;;;5037858;28;20060;-85
2022/11/16 03:31:24;;;;;;;37.92;26.10;;;10.80;99.90;;;;;;5071219;28;20056;-85
2022/11/16 03:33:55;;;;;;;37.83;26.38;;;10.80;99.90;;;;;;5071191;28;20052;-85
2022/11/16 03:36:31;;;;;;;38.03;25.20;;;10.80;99.90;;;;;;5037090;28;20110;-85
2022/11/16 03:39:05;;;;;;;38.88;25.77;;;10.90;99.90;;;;;;5037773;28;20045;-85
2022/11/16 03:41:33;;;;;;;38.65;25.17;;;10.90;99.90;;;;;;5037527;28;20123;-85
2022/11/16 03:43:59;;;;;;;40.03;25.77;;;10.80;99.90;;;;;;5037752;28;20056;-85
2022/11/16 03:46:25;;;;;;;37.80;25.50;;;10.90;99.90;;;;;;5054218;28;20094;-85
2022/11/16 03:48:57;;;;;;;35.20;25.30;;;10.80;99.90;;;;;;5053848;28;20041;-85
2022/11/16 03:51:23;;;;;;;36.47;25.92;;;10.80;99.90;;;;;;5020773;28;20087;-85
2022/11/16 03:53:49;;;;;;;33.17;24.30;;;10.80;99.90;;;;;;5037217;28;20045;-85
2022/11/16 03:56:15;;;;;;;33.85;24.83;;;10.80;99.90;;;;;;5020825;28;20116;-85
2022/11/16 03:58:40;;;;;;;36.53;25.10;;;10.80;99.90;;;;;;5070318;28;20123;-85
2022/11/16 04:01:06;;;;;;;40.05;25.30;;;10.80;99.90;;;;;;5053698;28;20079;-85
2022/11/16 04:03:32;;;;;;;38.67;27.58;;;10.80;99.90;;;;;;5070130;28;20508;-85
2022/11/16 04:25:29;;;;;;;37.97;24.10;;;10.80;99.90;;;;;;5036783;28;20059;-84
2022/11/16 04:28:15;;;;;;;39.92;25.23;;;10.80;99.90;;;;;;5036698;28;20095;-84
2022/11/16 04:38:58;;;;;;;36.47;25.65;;;10.80;99.90;;;;;;5036314;28;20053;-84
2022/11/16 04:44:08;;;;;;;38.05;25.55;;;10.80;99.90;;;;;;5050597;28;20056;-84
2022/11/16 04:49:17;;;;;;;36.72;25.20;;;10.80;99.90;;;;;;5055640;28;20469;-84
2022/11/16 04:51:43;;;;;;;34.20;24.70;;;10.80;99.90;;;;;;5019840;28;20131;-84
2022/11/16 04:54:09;;;;;;;36.50;24.75;;;10.90;99.90;;;;;;5053363;28;20445;-84
2022/11/16 04:56:34;;;;;;;37.80;24.48;;;10.90;99.90;;;;;;5052966;28;20131;-83
2022/11/16 04:59:00;;;;;;;42.15;24.88;;;10.90;99.90;;;;;;5036071;28;20504;-83
2022/11/16 05:02:11;;;;;;;35.30;23.98;;;10.90;99.90;;;;;;5035838;28;20545;-83
2022/11/16 05:04:11;;;;;;;36.05;24.33;;;10.90;99.90;;;;;;5042506;28;20134;-84
2022/11/16 05:06:37;;;;;;;36.70;24.10;;;10.90;99.90;;;;;;5035508;28;20505;-83
2022/11/16 05:09:03;;;;;;;31.77;22.50;;;10.90;99.90;;;;;;5052302;28;20163;-83
2022/11/16 05:11:28;;;;;;;30.73;22.35;;;10.90;99.90;;;;;;5052260;28;20049;-83
2022/11/16 05:13:54;;;;;;;37.88;23.58;;;10.90;99.90;;;;;;5035935;28;20071;-83
2022/11/16 05:16:20;;;;;;;41.17;24.95;;;10.90;99.90;;;;;;5035869;28;20056;-83
2022/11/16 05:20:59;;;;;;;39.15;25.88;;;10.90;99.90;;;;;;5051875;28;20052;-84
2022/11/16 05:21:31;;;;;;;37.03;24.17;;;10.90;99.90;;;;;;5058293;28;20540;-83
2022/11/16 05:26:41;;;;;;;35.50;24.15;;;10.90;99.90;;;;;;5035821;28;20143;-84
2022/11/16 05:29:06;;;;;;;31.10;22.10;;;11.00;99.90;;;;;;5035554;28;20068;-83
2022/11/16 05:31:32;;;;;;;32.13;23.08;;;10.90;99.90;;;;;;5052128;28;20106;-84
2022/11/16 05:33:57;;;;;;;38.42;24.30;;;11.00;99.90;;;;;;5035414;28;20128;-84
2022/11/16 05:36:23;;;;;;;50.72;24.85;;;11.00;99.90;;;;;;5019321;28;20071;-83
2022/11/16 05:38:49;;;;;;;35.30;23.33;;;11.00;99.90;;;;;;5035421;28;20044;-84
2022/11/16 05:41:14;;;;;;;36.00;21.95;;;11.00;99.90;;;;;;5052122;28;20041;-84
2022/11/16 05:43:40;;;;;;;32.10;22.88;;;11.00;99.90;;;;;;5051743;28;20459;-84
2022/11/16 05:46:06;;;;;;;36.47;24.05;;;11.00;99.90;;;;;;5035069;28;20053;-83
2022/11/16 05:48:31;;;;;;;32.70;22.05;;;11.00;99.90;;;;;;5018819;28;20045;-83
2022/11/16 05:50:58;;;;;;;36.17;22.73;;;11.00;99.90;;;;;;5051611;28;20124;-84
2022/11/16 05:53:24;;;;;;;35.50;22.73;;;11.00;99.90;;;;;;5051070;28;20091;-83
2022/11/16 05:55:49;;;;;;;33.75;21.38;;;10.90;99.90;;;;;;5018502;28;20489;-84
2022/11/16 05:58:15;;;;;;;31.88;20.42;;;10.90;99.90;;;;;;5015379;28;20081;-84
2022/11/16 06:00:41;;;;;;;33.75;19.92;;;10.90;99.90;;;;;;5025648;28;20126;-83
2022/11/16 06:03:06;;;;;;;35.80;21.35;;;10.90;99.90;;;;;;5034576;28;20051;-83
2022/11/16 06:05:35;;;;;;;35.10;20.70;;;10.80;99.90;;;;;;5018619;28;20041;-82
2022/11/16 06:08:01;;;;;;;33.95;21.13;;;10.80;99.90;;;;;;5002259;28;20078;-84
2022/11/16 06:10:27;;;;;;;34.30;20.58;;;10.80;99.90;;;;;;5022300;28;20500;-83
2022/11/16 06:12:53;;;;;;;25.63;17.80;;;10.80;99.90;;;;;;5018209;28;20041;-84
2022/11/16 06:15:18;;;;;;;32.90;19.85;;;10.70;99.90;;;;;;5035109;28;20045;-83
2022/11/16 06:17:44;;;;;;;39.83;20.27;;;10.70;99.90;;;;;;5035255;28;20052;-83
2022/11/16 06:20:10;;;;;;;35.17;20.38;;;10.70;99.90;;;;;;5018414;28;20045;-83
2022/11/16 06:22:36;;;;;;;35.53;20.25;;;10.70;99.90;;;;;;5051045;28;20053;-83
2022/11/16 06:25:03;;;;;;;33.60;19.35;;;10.80;99.90;;;;;;5017649;28;20120;-83
2022/11/16 06:27:29;;;;;;;26.92;16.65;;;10.70;99.90;;;;;;5035331;28;20501;-83
2022/11/16 06:29:55;;;;;;;30.65;16.52;;;10.70;99.90;;;;;;5034574;28;20077;-84
2022/11/16 06:32:21;;;;;;;31.38;17.95;;;10.70;99.90;;;;;;5035002;28;20044;-83
2022/11/16 06:34:46;;;;;;;33.38;17.73;;;10.70;99.90;;;;;;5051554;28;20174;-84
2022/11/16 06:37:12;;;;;;;37.72;17.75;;;10.70;99.90;;;;;;5035041;28;20052;-83
2022/11/16 06:39:38;;;;;;;32.22;17.05;;;10.70;99.90;;;;;;5018151;28;20123;-83
2022/11/16 06:42:03;;;;;;;30.48;16.73;;;10.70;99.90;;;;;;5034539;28;20132;-83
2022/11/16 06:44:29;;;;;;;38.50;18.65;;;10.70;99.90;;;;;;5034819;28;20087;-83
2022/11/16 06:46:55;;;;;;;26.67;14.45;;;10.60;99.90;;;;;;5051076;28;20041;-87
2022/11/16 06:49:20;;;;;;;26.58;14.50;;;10.60;99.90;;;;;;5051471;28;20056;-83
2022/11/16 06:51:46;;;;;;;27.52;14.15;;;10.60;99.90;;;;;;5035206;28;20041;-83
2022/11/16 06:54:12;;;;;;;28.38;14.18;;;10.60;99.90;;;;;;5051083;28;20045;-83
2022/11/16 06:56:37;;;;;;;22.55;13.85;;;10.60;99.90;;;;;;5051328;28;20135;-83
2022/11/16 06:59:03;;;;;;;27.30;14.82;;;10.60;99.90;;;;;;5034469;28;20044;-83
2022/11/16 07:01:30;;;;;;;32.42;15.05;;;10.60;99.90;;;;;;5034463;28;20077;-83
2022/11/16 07:03:56;;;;;;;34.65;17.60;;;10.50;99.90;;;;;;5018020;28;20045;-85
2022/11/16 07:06:22;;;;;;;35.63;18.73;;;10.50;99.90;;;;;;5023792;28;20448;-83
2022/11/16 07:08:48;;;;;;;35.80;18.90;;;10.50;99.90;;;;;;5027732;28;20062;-82
2022/11/16 07:11:13;;;;;;;37.67;19.80;;;10.60;99.90;;;;;;5028934;28;20046;-84
2022/11/16 07:13:39;;;;;;;35.40;18.27;;;10.60;99.90;;;;;;5015261;28;20057;-84
2022/11/16 07:16:08;;;;;;;37.40;19.48;;;10.50;99.90;;;;;;5015782;28;20052;-86
2022/11/16 07:18:38;;;;;;;36.00;19.83;;;10.50;99.90;;;;;;5018514;28;20398;-85
2022/11/16 07:21:09;;;;;;;43.97;20.90;;;10.50;99.90;;;;;;5051226;28;20053;-83
2022/11/16 07:23:35;;;;;;;38.53;19.75;;;10.50;99.90;;;;;;5051438;28;20053;-85
2022/11/16 07:26:05;;;;;;;35.58;19.00;;;10.50;99.90;;;;;;5034421;28;20049;-85
2022/11/16 07:28:31;;;;;;;35.35;18.20;;;10.50;99.90;;;;;;5051404;28;20057;-85
2022/11/16 07:31:05;;;;;;;32.92;17.30;;;10.50;99.90;;;;;;5051298;28;20053;-85
2022/11/16 07:33:31;;;;;;;39.08;19.80;;;10.40;99.90;;;;;;5034904;28;20037;-85
2022/11/16 07:36:12;;;;;;;29.92;17.45;;;10.50;99.90;;;;;;5034689;28;20140;-84
2022/11/16 07:38:38;;;;;;;37.75;18.08;;;10.50;99.90;;;;;;5051247;28;20432;-84
2022/11/16 07:41:06;;;;;;;27.65;15.77;;;10.50;99.90;;;;;;5034385;28;20041;-84
2022/11/16 07:43:35;;;;;;;31.92;15.93;;;10.50;99.90;;;;;;5035029;28;20084;-84
2022/11/16 07:46:06;;;;;;;33.80;17.20;;;10.40;99.90;;;;;;5001948;28;20045;-85
2022/11/16 07:48:32;;;;;;;26.45;15.88;;;10.40;99.90;;;;;;5017840;28;20056;-85
2022/11/16 07:51:03;;;;;;;30.02;16.60;;;10.40;99.90;;;;;;5018025;28;20053;-83
2022/11/16 07:53:30;;;;;;;30.75;16.35;;;10.40;99.90;;;;;;5023881;28;20057;-83
2022/11/16 07:55:56;;;;;;;35.78;17.25;;;10.40;99.90;;;;;;5037648;28;20056;-89
2022/11/16 07:58:22;;;;;;;31.60;16.58;;;10.40;99.90;;;;;;5020243;28;20073;-85
2022/11/16 08:00:48;;;;;;;34.15;18.40;;;10.40;99.90;;;;;;5001422;28;20050;-86
2022/11/16 08:03:14;;;;;;;33.30;16.35;;;10.40;99.90;;;;;;5034209;28;20053;-85
2022/11/16 08:05:40;;;;;;;36.75;19.13;;;10.40;99.90;;;;;;5050464;28;20045;-85
2022/11/16 08:08:06;;;;;;;35.17;19.30;;;10.40;99.90;;;;;;5017319;28;20412;-85
2022/11/16 08:10:32;;;;;;;39.20;19.80;;;10.40;99.90;;;;;;5001459;28;20045;-86
2022/11/16 08:12:58;;;;;;;41.92;20.85;;;10.40;99.90;;;;;;5050766;28;20049;-84
2022/11/16 08:15:24;;;;;;;43.08;20.83;;;10.40;99.90;;;;;;5000632;28;20041;-83
2022/11/16 08:17:50;;;;;;;41.78;21.10;;;10.40;99.90;;;;;;5001226;28;20110;-82
2022/11/16 08:20:16;;;;;;;44.28;21.20;;;10.40;99.90;;;;;;5033457;28;20393;-82
2022/11/16 08:22:42;;;;;;;37.65;20.33;;;10.40;99.90;;;;;;5017056;28;20136;-82
2022/11/16 08:25:08;;;;;;;42.63;21.00;;;10.40;99.90;;;;;;5033249;28;20071;-87
2022/11/16 08:27:35;;;;;;;38.35;19.65;;;10.50;99.90;;;;;;5033474;28;20053;-85
2022/11/16 08:30:03;;;;;;;36.60;18.92;;;10.40;99.90;;;;;;5033380;28;20053;-84
2022/11/16 08:32:29;;;;;;;34.30;19.42;;;10.50;99.90;;;;;;5033207;28;20041;-82
2022/11/16 08:34:55;;;;;;;40.38;20.00;;;10.40;99.90;;;;;;5000574;28;20056;-84
2022/11/16 08:37:21;;;;;;;34.88;18.52;;;10.50;99.90;;;;;;5043214;28;20049;-85
2022/11/16 08:39:47;;;;;;;39.47;21.50;;;10.40;99.90;;;;;;5049920;28;20379;-84
2022/11/16 08:42:13;;;;;;;35.05;20.10;;;10.40;99.90;;;;;;5032355;28;20041;-86
2022/11/16 08:44:38;;;;;;;30.33;18.33;;;10.50;99.90;;;;;;5047960;28;20096;-86
2022/11/16 08:47:04;;;;;;;36.17;18.77;;;10.50;99.90;;;;;;5038962;28;20041;-87
2022/11/16 08:49:30;;;;;;;31.73;18.42;;;10.50;99.90;;;;;;5021705;28;20064;-85
2022/11/16 08:51:56;;;;;;;30.80;18.33;;;10.50;99.90;;;;;;5038935;28;20056;-84
2022/11/16 08:54:22;;;;;;;30.15;18.85;;;10.50;99.90;;;;;;5041848;28;20489;-84
2022/11/16 08:56:48;;;;;;;32.20;19.13;;;10.50;99.90;;;;;;5037042;28;20056;-84
2022/11/16 08:59:13;;;;;;;31.83;18.58;;;10.50;99.90;;;;;;5032454;28;20053;-85
2022/11/16 09:01:39;;;;;;;32.97;19.55;;;10.50;99.90;;;;;;5016633;28;20092;-85
2022/11/16 09:04:05;;;;;;;34.38;18.70;;;10.50;99.90;;;;;;5016358;28;20046;-85
2022/11/16 09:06:30;;;;;;;34.28;18.33;;;10.60;99.90;;;;;;5015964;28;20859;-84
2022/11/16 09:08:56;;;;;;;28.48;19.20;;;10.60;99.90;;;;;;5032190;28;20053;-84
2022/11/16 09:11:24;;;;;;;28.08;17.67;;;10.60;99.90;;;;;;5037071;28;20046;-85
2022/11/16 09:13:51;;;;;;;28.05;17.90;;;10.60;99.90;;;;;;5013162;28;20081;-87
2022/11/16 09:16:19;;;;;;;30.00;18.73;;;10.70;99.90;;;;;;5048112;28;20076;-86
2022/11/16 09:18:46;;;;;;;28.98;17.92;;;10.70;99.90;;;;;;5013981;28;20051;-83
2022/11/16 09:21:19;;;;;;;29.25;18.70;;;10.70;99.90;;;;;;5038012;28;20045;-83
2022/11/16 09:23:46;;;;;;;28.23;17.73;;;10.80;99.90;;;;;;5036005;28;20439;-87
2022/11/16 09:26:12;;;;;;;31.08;17.60;;;10.80;99.90;;;;;;5036027;28;20389;-87
2022/11/16 09:28:38;;;;;;;27.55;17.17;;;10.80;99.90;;;;;;5069090;28;20044;-86
2022/11/16 09:31:05;;;;;;;25.75;17.00;;;10.80;99.90;;;;;;5035994;28;20045;-85
2022/11/16 09:33:32;;;;;;;30.45;18.58;;;10.80;99.90;;;;;;5052013;28;20481;-86
2022/11/16 09:36:06;;;;;;;30.42;18.50;;;10.90;99.90;;;;;;5077491;28;20057;-86
2022/11/16 09:38:34;;;;;;;28.92;18.67;;;10.90;99.90;;;;;;5055919;28;20045;-89
2022/11/16 09:41:09;;;;;;;30.40;18.48;;;11.00;99.90;;;;;;5038475;28;20084;-87
2022/11/16 09:43:57;;;;;;;29.48;20.35;;;11.10;99.90;;;;;;5003676;28;20045;-88
2022/11/16 09:46:33;;;;;;;33.88;21.38;;;11.10;99.90;;;;;;5046468;28;20045;-92
2022/11/16 09:49:03;;;;;;;31.30;19.98;;;11.10;99.90;;;;;;5024540;28;20048;-87
2022/11/16 09:51:32;;;;;;;31.42;21.23;;;11.30;99.90;;;;;;5022070;28;20053;-86
2022/11/16 09:54:01;;;;;;;32.03;22.38;;;11.40;99.90;;;;;;5032125;28;20057;-86
2022/11/16 09:56:30;;;;;;;36.35;23.95;;;11.50;99.90;;;;;;5031919;28;20120;-85
2022/11/16 09:59:15;;;;;;;33.00;23.05;;;11.60;99.90;;;;;;5036995;28;20049;-86
2022/11/16 10:01:47;;;;;;;33.70;22.08;;;11.60;99.90;;;;;;5051969;28;20132;-85
2022/11/16 10:04:16;;;;;;;34.78;23.10;;;11.60;99.90;;;;;;5039679;28;20045;-85
2022/11/16 10:06:59;;;;;;;32.00;21.75;;;11.50;99.90;;;;;;5014999;28;20065;-86
2022/11/16 10:09:26;;;;;;;30.92;22.42;;;11.50;99.90;;;;;;5011056;28;20506;-85
2022/11/16 10:12:07;;;;;;;31.92;22.20;;;11.70;99.90;;;;;;5027532;28;20099;-83
2022/11/16 10:14:41;;;;;;;27.15;22.27;;;11.60;99.90;;;;;;4995688;28;20049;-84
2022/11/16 10:17:38;;;;;;;25.67;19.35;;;11.70;99.90;;;;;;5012205;28;20046;-84
2022/11/16 10:20:28;;;;;;;25.33;19.23;;;11.80;99.90;;;;;;5028929;28;20536;-83
2022/11/16 10:23:11;;;;;;;24.95;18.55;;;11.70;99.90;;;;;;5028845;28;20597;-83
2022/11/16 10:25:57;;;;;;;22.77;17.55;;;11.70;99.90;;;;;;5028373;28;20042;-84
2022/11/16 10:28:38;;;;;;;;;;;11.80;99.90;;;;;;5029028;28;20050;-84
2022/11/16 10:31:41;;;;;;;20.13;15.50;;;11.80;99.90;;;;;;5028503;28;19922;-83
2022/11/16 10:34:14;;;;;;;16.80;13.63;;;11.80;99.90;;;;;;5012001;28;20045;-84
2022/11/16 10:36:40;;;;;;;18.83;13.18;;;11.90;99.90;;;;;;5028387;28;20050;-84
2022/11/16 10:39:13;;;;;;;16.67;11.50;;;11.90;99.90;;;;;;5028128;28;20050;-84
2022/11/16 10:41:42;;;;;;;14.32;9.77;;;11.90;99.90;;;;;;5028450;28;20121;-84
2022/11/16 10:44:26;;;;;;;14.10;9.00;;;11.80;99.90;;;;;;5028596;28;20052;-83
2022/11/16 10:47:33;;;;;;;17.85;8.82;;;11.80;99.90;;;;;;5015227;28;20135;-84
2022/11/16 10:50:15;;;;;;;19.05;10.65;;;12.00;99.90;;;;;;5014911;28;20065;-85
2022/11/16 10:52:41;;;;;;;19.58;10.45;;;12.10;99.90;;;;;;5014558;28;20046;-87
2022/11/16 10:55:12;;;;;;;16.00;10.27;;;12.10;99.90;;;;;;5015763;28;20054;-83
2022/11/16 10:58:16;;;;;;;14.63;9.07;;;12.20;99.90;;;;;;4999360;28;20560;-83
2022/11/16 11:00:47;;;;;;;13.50;7.32;;;12.50;99.90;;;;;;4924683;29;20043;-86
2022/11/16 11:03:13;;;;;;;12.07;6.57;;;12.80;99.90;;;;;;4924163;29;20435;-85
2022/11/16 11:05:48;;;;;;;11.45;6.80;;;13.00;99.90;;;;;;4969573;28;20457;-86
2022/11/16 11:08:29;;;;;;;14.90;6.20;;;13.40;99.90;;;;;;5024209;28;20433;-85
2022/11/16 11:12:36;;;;;;;14.43;5.57;;;13.60;99.90;;;;;;5038930;28;20049;-84
2022/11/16 11:14:08;;;;;;;10.75;5.20;;;13.90;99.90;;;;;;5015030;28;20107;-85
2022/11/16 11:16:34;;;;;;;9.68;5.55;;;14.10;99.90;;;;;;5015329;28;20091;-85
2022/11/16 11:19:17;;;;;;;12.88;5.43;;;14.30;99.90;;;;;;4998263;28;20092;-86
2022/11/16 11:21:44;;;;;;;9.13;5.30;;;14.50;99.90;;;;;;5003831;28;20092;-86
2022/11/16 11:24:16;;;;;;;11.82;5.70;;;14.50;99.90;;;;;;4989982;28;20491;-86
2022/11/16 11:26:42;;;;;;;11.20;5.32;;;14.50;99.90;;;;;;5037253;28;20486;-87
2022/11/16 11:29:31;;;;;;;11.23;6.15;;;14.40;99.90;;;;;;5034806;28;20129;-87
2022/11/16 11:32:03;;;;;;;16.27;6.95;;;14.50;99.90;;;;;;5051696;28;20424;-86
2022/11/16 11:34:41;;;;;;;12.70;6.45;;;14.60;99.90;;;;;;5051329;28;20096;-87
2022/11/16 11:37:15;;;;;;;17.25;6.65;;;14.30;99.90;;;;;;5051872;28;20102;-87
2022/11/16 11:39:41;;;;;;;14.40;6.60;;;14.40;99.90;;;;;;5067733;28;20151;-89
2022/11/16 11:42:13;;;;;;;10.38;6.10;;;14.50;99.90;;;;;;5051456;28;20140;-87
2022/11/16 11:45:02;;;;;;;13.73;6.82;;;14.40;99.90;;;;;;5050902;28;20135;-88
2022/11/16 11:47:27;;;;;;;13.65;6.55;;;14.50;99.90;;;;;;5034456;28;20477;-84
2022/11/16 11:50:18;;;;;;;11.18;6.40;;;14.30;99.90;;;;;;5050951;28;20053;-84
2022/11/16 11:53:06;;;;;;;13.90;6.68;;;14.00;99.90;;;;;;5017577;28;20049;-85
2022/11/16 11:55:33;;;;;;;15.95;6.47;;;13.90;99.90;;;;;;5017490;28;20056;-85
2022/11/16 11:58:02;;;;;;;12.48;5.55;;;14.10;99.90;;;;;;5034018;28;20056;-86
2022/11/16 12:00:41;;;;;;;11.25;5.30;;;14.50;99.90;;;;;;5034027;28;20521;-84
2022/11/16 12:03:18;;;;;;;10.60;5.20;;;14.70;99.90;;;;;;5067697;28;20132;-85
2022/11/16 12:06:08;;;;;;;9.75;5.10;;;15.20;99.90;;;;;;5050136;28;20046;-83
2022/11/16 12:08:51;;;;;;;10.77;5.78;;;15.50;99.90;;;;;;5056500;28;20058;-81
2022/11/16 12:11:58;;;;;;;10.23;5.13;;;15.60;99.90;;;;;;5034282;28;20104;-83
2022/11/16 12:14:24;;;;;;;10.93;5.40;;;15.70;99.90;;;;;;5017602;28;20064;-83
2022/11/16 12:17:24;;;;;;;10.35;5.20;;;15.90;99.90;;;;;;5033745;28;20053;-83
2022/11/16 12:20:18;;;;;;;9.48;4.70;;;15.70;99.90;;;;;;5033703;28;20115;-83
2022/11/16 12:23:00;;;;;;;10.63;4.43;;;15.60;99.90;;;;;;5033476;28;20465;-83
2022/11/16 12:25:51;;;;;;;13.15;4.97;;;15.30;99.90;;;;;;5033861;28;20068;-82
2022/11/16 12:28:36;;;;;;;9.98;4.00;;;14.90;99.90;;;;;;5050242;28;20072;-82
2022/11/16 12:31:17;;;;;;;10.50;3.83;;;14.70;99.90;;;;;;5033603;28;20132;-82
2022/11/16 12:34:13;;;;;;;10.13;3.83;;;14.40;99.90;;;;;;5033368;28;20050;-82
2022/11/16 12:36:49;;;;;;;11.95;3.70;;;14.30;99.90;;;;;;5017128;28;20042;-84
2022/11/16 12:39:34;;;;;;;9.32;3.90;;;14.40;99.90;;;;;;5033548;28;20119;-82
2022/11/16 12:42:09;;;;;;;9.20;3.53;;;14.80;99.90;;;;;;5049998;28;20060;-82
2022/11/16 12:45:02;;;;;;;13.73;4.22;;;15.40;99.90;;;;;;5033060;28;20049;-82
2022/11/16 12:47:51;;;;;;;10.82;3.40;;;15.90;99.90;;;;;;5016097;28;20037;-83
2022/11/16 12:50:47;;;;;;;13.38;3.80;;;16.10;99.90;;;;;;5033213;28;20559;-82
2022/11/16 12:53:13;;;;;;;;;;;16.00;99.90;;;;;;5033658;28;20371;-82
2022/11/16 12:55:58;;;;;;;9.73;3.20;;;16.40;99.90;;;;;;5033208;28;19928;-82
2022/11/16 12:59:09;;;;;;;9.80;3.20;;;16.70;99.90;;;;;;5033155;28;20046;-82
2022/11/16 13:01:42;;;;;;;9.70;2.97;;;17.00;99.90;;;;;;5031837;28;20053;-82
2022/11/16 13:04:28;;;;;;;7.80;2.72;;;17.10;99.90;;;;;;5033227;28;20118;-82
2022/11/16 13:07:12;;;;;;;8.85;2.95;;;17.10;99.90;;;;;;5032576;28;20058;-82
2022/11/16 13:09:44;;;;;;;13.10;3.08;;;17.10;99.90;;;;;;5032340;28;20072;-82
2022/11/16 13:12:15;;;;;;;8.60;2.63;;;17.20;99.90;;;;;;5033136;28;20045;-82
2022/11/16 13:14:47;;;;;;;9.20;3.00;;;17.20;99.90;;;;;;5032945;28;20100;-82
2022/11/16 13:17:32;;;;;;;13.43;3.38;;;17.20;99.90;;;;;;5049745;28;20136;-82
2022/11/16 13:20:28;;;;;;;11.10;3.00;;;17.40;99.90;;;;;;5016169;28;20076;-82
2022/11/16 13:23:27;;;;;;;11.60;2.77;;;17.10;99.90;;;;;;5032606;28;20041;-82
2022/11/16 13:26:22;;;;;;;9.73;2.85;;;16.90;99.90;;;;;;5022529;28;20405;-82
2022/11/16 13:28:51;;;;;;;10.38;2.70;;;17.00;99.90;;;;;;5032565;28;20101;-83
2022/11/16 13:31:32;;;;;;;11.45;3.00;;;16.70;99.90;;;;;;5032596;28;20049;-82
2022/11/16 13:34:06;;;;;;;10.18;2.70;;;16.30;99.90;;;;;;5032489;28;20401;-82
2022/11/16 13:36:42;;;;;;;8.45;2.25;;;16.00;99.90;;;;;;5032262;28;20060;-81